Time;durP1;ratioP1;P1;durP2;ratioP2;P2;SDS_P1;SDS_P2;PMS_P1;PMS_P2;Temp;Humidity;BMP_temperature;BMP_pressure;BME280_temperature;BME280_humidity;BME280_pressure;Samples;Min_cycle;Max_cycle;Signal;HPM_P1;HPM_P2
2023/07/19 00:00:38;;;;;;;10.13;2.42;;;22.40;82.30;;;;;;5055066;28;20017;-74
2023/07/19 00:03:04;;;;;;;6.53;2.47;;;22.40;82.30;;;;;;5054685;28;20124;-74
2023/07/19 00:05:30;;;;;;;7.93;2.38;;;22.40;82.10;;;;;;5055319;28;20493;-75
2023/07/19 00:07:55;;;;;;;6.47;2.58;;;22.40;82.30;;;;;;5055046;28;20021;-74
2023/07/19 00:10:21;;;;;;;3.90;2.15;;;22.40;82.40;;;;;;5054520;28;20461;-74
2023/07/19 00:12:47;;;;;;;5.45;2.60;;;22.30;82.50;;;;;;5054731;28;20129;-74
2023/07/19 00:15:12;;;;;;;4.25;2.13;;;22.30;82.50;;;;;;5054752;28;20062;-74
2023/07/19 00:17:38;;;;;;;8.10;2.10;;;22.30;82.80;;;;;;5054604;28;20088;-74
2023/07/19 00:20:04;;;;;;;8.27;2.83;;;22.30;82.80;;;;;;5054686;28;20386;-74
2023/07/19 00:22:32;;;;;;;6.25;1.85;;;22.30;82.60;;;;;;5054727;28;20049;-74
2023/07/19 00:24:57;;;;;;;5.07;1.80;;;22.30;82.80;;;;;;5073666;28;20068;-74
2023/07/19 00:27:24;;;;;;;5.80;2.00;;;22.30;83.20;;;;;;5073310;28;20625;-75
2023/07/19 00:29:49;;;;;;;5.32;2.08;;;22.30;83.00;;;;;;5055980;28;20469;-74
2023/07/19 00:32:15;;;;;;;9.63;1.83;;;22.20;83.30;;;;;;5074023;28;20032;-74
2023/07/19 00:34:41;;;;;;;5.25;1.65;;;22.30;83.40;;;;;;5074542;28;20363;-74
2023/07/19 00:37:06;;;;;;;3.25;1.70;;;22.20;83.30;;;;;;5074256;28;20429;-73
2023/07/19 00:39:32;;;;;;;4.03;1.75;;;22.20;83.50;;;;;;5074392;28;20021;-74
2023/07/19 00:41:57;;;;;;;6.32;1.90;;;22.20;83.50;;;;;;5074262;28;20115;-74
2023/07/19 00:44:23;;;;;;;5.55;1.70;;;22.20;83.70;;;;;;5074064;28;20040;-75
2023/07/19 00:46:49;;;;;;;5.22;1.73;;;22.20;83.50;;;;;;5073834;28;20535;-74
2023/07/19 00:49:14;;;;;;;6.95;2.55;;;22.20;83.60;;;;;;5074089;28;20063;-74
2023/07/19 00:51:41;;;;;;;4.72;1.83;;;22.10;83.50;;;;;;5073854;28;20036;-74
2023/07/19 00:54:07;;;;;;;2.70;1.55;;;22.10;83.40;;;;;;5073928;28;20047;-74
2023/07/19 00:56:33;;;;;;;4.55;1.70;;;22.10;83.60;;;;;;5073946;28;20104;-74
2023/07/19 00:59:01;;;;;;;6.60;2.10;;;22.10;83.70;;;;;;5074000;28;20099;-74
2023/07/19 01:01:27;;;;;;;3.80;2.05;;;22.10;84.00;;;;;;5073606;28;20029;-74
2023/07/19 01:03:53;;;;;;;5.78;2.75;;;22.10;84.00;;;;;;5073806;28;20040;-74
2023/07/19 01:06:19;;;;;;;4.00;1.75;;;22.00;84.20;;;;;;5073809;28;20028;-74
2023/07/19 01:08:48;;;;;;;3.25;2.05;;;22.00;84.20;;;;;;5073760;28;20024;-74
2023/07/19 01:11:14;;;;;;;6.60;2.22;;;22.00;84.20;;;;;;5073586;28;20027;-74
2023/07/19 01:14:05;;;;;;;5.35;2.25;;;22.00;84.40;;;;;;5073657;28;20385;-74
2023/07/19 01:16:31;;;;;;;5.70;1.90;;;22.00;84.30;;;;;;5052542;28;20202;-74
2023/07/19 01:18:56;;;;;;;7.97;2.50;;;22.00;84.80;;;;;;5073574;28;20146;-74
2023/07/19 01:21:22;;;;;;;4.20;2.08;;;21.90;84.80;;;;;;5072791;28;20033;-74
2023/07/19 01:23:48;;;;;;;5.07;2.05;;;22.00;84.90;;;;;;5073465;28;20036;-74
2023/07/19 01:26:14;;;;;;;5.00;1.88;;;22.00;84.90;;;;;;5073494;28;20027;-74
2023/07/19 01:28:39;;;;;;;5.82;2.22;;;22.00;84.80;;;;;;5055528;28;20029;-74
2023/07/19 01:31:06;;;;;;;6.35;2.20;;;22.00;84.70;;;;;;5073126;28;20474;-74
2023/07/19 01:33:32;;;;;;;3.92;1.88;;;22.00;84.60;;;;;;5073301;28;20028;-74
2023/07/19 01:35:58;;;;;;;6.63;2.00;;;22.00;84.60;;;;;;5073454;28;20031;-74
2023/07/19 01:38:23;;;;;;;4.97;2.00;;;22.00;84.30;;;;;;5073191;28;20024;-74
2023/07/19 01:40:49;;;;;;;3.33;1.73;;;21.90;84.50;;;;;;5073303;28;20021;-74
2023/07/19 01:43:15;;;;;;;6.15;1.95;;;21.90;85.10;;;;;;5073172;28;20389;-74
2023/07/19 01:45:41;;;;;;;6.15;2.22;;;21.90;85.10;;;;;;5073013;28;20024;-74
2023/07/19 01:48:06;;;;;;;5.15;1.83;;;21.90;84.60;;;;;;5073113;28;20020;-74
2023/07/19 01:50:32;;;;;;;5.70;2.28;;;21.90;84.60;;;;;;5072970;28;20032;-74
2023/07/19 01:52:58;;;;;;;6.30;2.70;;;21.90;84.90;;;;;;5073080;28;20104;-74
2023/07/19 01:55:24;;;;;;;7.30;2.35;;;21.90;84.90;;;;;;5073261;28;20045;-74
2023/07/19 01:57:49;;;;;;;6.15;2.28;;;21.80;85.00;;;;;;5055073;28;20055;-74
2023/07/19 02:00:15;;;;;;;4.05;1.92;;;21.80;85.00;;;;;;5073000;28;20065;-74
2023/07/19 02:02:41;;;;;;;5.03;1.98;;;21.80;85.20;;;;;;5072506;28;20377;-74
2023/07/19 02:05:07;;;;;;;6.75;2.40;;;21.80;85.20;;;;;;5072735;28;20037;-74
2023/07/19 02:07:32;;;;;;;4.35;1.83;;;21.80;85.40;;;;;;5072982;28;20016;-75
2023/07/19 02:09:58;;;;;;;5.25;2.40;;;21.80;85.50;;;;;;5073236;28;20443;-74
2023/07/19 02:12:24;;;;;;;5.97;2.05;;;21.80;85.50;;;;;;5072869;28;20017;-74
2023/07/19 02:14:49;;;;;;;4.20;1.77;;;21.80;85.90;;;;;;5072493;28;20568;-74
2023/07/19 02:17:15;;;;;;;4.57;1.80;;;21.80;85.90;;;;;;5072947;28;20028;-74
2023/07/19 02:19:40;;;;;;;5.65;2.05;;;21.70;85.80;;;;;;5072829;28;20044;-74
2023/07/19 02:22:06;;;;;;;3.97;1.80;;;21.80;85.80;;;;;;5072877;28;20497;-74
2023/07/19 02:24:32;;;;;;;5.55;2.33;;;21.80;86.00;;;;;;5072511;28;20496;-73
2023/07/19 02:26:58;;;;;;;5.20;2.15;;;21.80;86.10;;;;;;5073028;28;20022;-74
2023/07/19 02:29:24;;;;;;;10.57;2.80;;;21.70;86.00;;;;;;5072388;28;20086;-74
2023/07/19 02:31:52;;;;;;;3.95;2.00;;;21.80;87.60;;;;;;5072859;28;20027;-74
2023/07/19 02:34:18;;;;;;;4.68;2.70;;;21.70;86.70;;;;;;5076071;28;20024;-75
2023/07/19 02:36:45;;;;;;;4.28;2.20;;;21.70;86.50;;;;;;5076818;28;20024;-74
2023/07/19 02:39:10;;;;;;;4.78;2.50;;;21.70;86.50;;;;;;5076590;28;20103;-73
2023/07/19 02:41:36;;;;;;;5.28;2.28;;;21.70;86.40;;;;;;5076642;28;20461;-74
2023/07/19 02:44:01;;;;;;;5.72;2.30;;;21.70;86.30;;;;;;5076018;28;20397;-74
2023/07/19 02:46:28;;;;;;;4.63;2.30;;;21.70;86.50;;;;;;5076500;28;20373;-74
2023/07/19 02:48:54;;;;;;;4.32;2.10;;;21.70;86.40;;;;;;5076375;28;20024;-74
2023/07/19 02:51:19;;;;;;;5.80;2.25;;;21.70;86.70;;;;;;5076220;28;20036;-74
2023/07/19 02:53:45;;;;;;;5.65;2.60;;;21.60;86.70;;;;;;5076301;28;20013;-74
2023/07/19 02:56:10;;;;;;;8.00;2.75;;;21.60;86.80;;;;;;5076225;28;20028;-74
2023/07/19 02:58:36;;;;;;;5.30;2.53;;;21.60;86.90;;;;;;5075860;28;20381;-74
2023/07/19 03:01:01;;;;;;;5.07;2.08;;;21.60;86.60;;;;;;5076312;28;20051;-74
2023/07/19 03:03:28;;;;;;;8.30;2.85;;;21.60;86.60;;;;;;5075988;28;20083;-74
2023/07/19 03:05:54;;;;;;;6.57;2.72;;;21.60;86.60;;;;;;5076234;28;20066;-74
2023/07/19 03:08:19;;;;;;;6.13;2.70;;;21.60;86.50;;;;;;5076309;28;20028;-74
2023/07/19 03:10:45;;;;;;;7.55;2.80;;;21.60;86.60;;;;;;5075809;28;20025;-74
2023/07/19 03:13:11;;;;;;;6.75;3.42;;;21.60;86.90;;;;;;5076026;28;20059;-74
2023/07/19 03:15:36;;;;;;;5.38;2.38;;;21.50;86.70;;;;;;5075922;28;20037;-74
2023/07/19 03:18:03;;;;;;;5.85;2.55;;;21.60;86.90;;;;;;5075983;28;20029;-74
2023/07/19 03:20:29;;;;;;;6.63;3.10;;;21.60;86.90;;;;;;5075750;28;20016;-74
2023/07/19 03:23:00;;;;;;;7.35;3.13;;;21.60;87.00;;;;;;5075734;28;20044;-74
2023/07/19 03:25:28;;;;;;;7.38;3.08;;;21.60;86.90;;;;;;5075497;28;20035;-74
2023/07/19 03:27:54;;;;;;;7.78;3.25;;;21.50;87.10;;;;;;5075790;28;20462;-74
2023/07/19 03:30:20;;;;;;;5.35;2.90;;;21.50;87.10;;;;;;5075482;28;20025;-74
2023/07/19 03:32:46;;;;;;;5.50;2.90;;;21.50;87.20;;;;;;5075700;28;20028;-74
2023/07/19 03:35:11;;;;;;;7.95;3.13;;;21.50;87.50;;;;;;5075659;28;20021;-74
2023/07/19 03:37:37;;;;;;;7.60;3.47;;;21.50;87.50;;;;;;5075554;28;20025;-74
2023/07/19 03:40:06;;;;;;;7.45;3.33;;;21.50;87.70;;;;;;5075277;28;20023;-75
2023/07/19 03:42:31;;;;;;;5.00;3.38;;;21.50;87.70;;;;;;5075323;28;20028;-75
2023/07/19 03:44:57;;;;;;;7.30;3.55;;;21.40;87.90;;;;;;5074677;28;20040;-74
2023/07/19 03:47:24;;;;;;;7.03;3.47;;;21.40;87.80;;;;;;5057494;28;20032;-74
2023/07/19 03:49:49;;;;;;;6.90;3.25;;;21.40;87.70;;;;;;5075193;28;20112;-75
2023/07/19 03:52:15;;;;;;;7.15;4.03;;;21.40;87.80;;;;;;5075256;28;20119;-75
2023/07/19 03:54:41;;;;;;;10.05;4.10;;;21.40;87.70;;;;;;5074797;28;20103;-75
2023/07/19 03:57:06;;;;;;;7.15;3.88;;;21.40;87.70;;;;;;5075255;28;20050;-75
2023/07/19 03:59:32;;;;;;;10.25;3.92;;;21.40;87.70;;;;;;5075232;28;20016;-74
2023/07/19 04:01:58;;;;;;;8.90;4.25;;;21.40;87.70;;;;;;5075051;28;20548;-75
2023/07/19 04:04:23;;;;;;;9.82;4.05;;;21.40;87.70;;;;;;5075110;28;20116;-75
2023/07/19 04:06:49;;;;;;;9.70;4.38;;;21.40;87.80;;;;;;5074874;28;20024;-74
2023/07/19 04:09:15;;;;;;;7.72;4.18;;;21.40;87.90;;;;;;5074873;28;20477;-74
2023/07/19 04:11:41;;;;;;;6.78;4.68;;;21.30;87.60;;;;;;5074990;28;20012;-74
2023/07/19 04:14:07;;;;;;;9.90;4.00;;;21.30;87.60;;;;;;5074790;28;20485;-74
2023/07/19 04:16:32;;;;;;;8.70;4.00;;;21.40;87.60;;;;;;5056793;28;20552;-74
2023/07/19 04:19:01;;;;;;;7.65;4.30;;;21.30;87.30;;;;;;5074935;28;20024;-74
2023/07/19 04:21:27;;;;;;;9.75;4.00;;;21.30;87.30;;;;;;5074741;28;20434;-74
2023/07/19 04:23:52;;;;;;;6.95;3.33;;;21.30;87.10;;;;;;5074436;28;20505;-74
2023/07/19 04:26:18;;;;;;;7.82;3.40;;;21.30;87.00;;;;;;5074692;28;20458;-74
2023/07/19 04:28:43;;;;;;;10.38;3.97;;;21.30;87.00;;;;;;5074623;28;20028;-75
2023/07/19 04:31:09;;;;;;;10.05;3.70;;;21.30;86.80;;;;;;5074682;28;20488;-74
2023/07/19 04:33:34;;;;;;;8.88;4.15;;;21.30;86.80;;;;;;5074789;28;20028;-74
2023/07/19 04:36:09;;;;;;;9.43;3.80;;;21.40;86.90;;;;;;5074731;28;20067;-74
2023/07/19 04:38:35;;;;;;;12.40;4.22;;;21.30;87.10;;;;;;5055995;28;20422;-74
2023/07/19 04:41:04;;;;;;;7.13;3.90;;;21.30;86.90;;;;;;5074396;28;20063;-74
2023/07/19 04:43:30;;;;;;;8.00;4.32;;;21.30;87.00;;;;;;5073971;28;20035;-73
2023/07/19 04:45:55;;;;;;;11.63;5.05;;;21.30;87.10;;;;;;5074303;28;20028;-74
2023/07/19 04:48:21;;;;;;;13.55;6.30;;;21.20;87.20;;;;;;5074335;28;20025;-75
2023/07/19 04:50:53;;;;;;;13.75;5.65;;;21.20;87.30;;;;;;5073906;28;20147;-74
2023/07/19 04:53:19;;;;;;;15.38;6.45;;;21.20;87.40;;;;;;5073954;28;20020;-74
2023/07/19 04:55:44;;;;;;;10.40;5.60;;;21.20;87.50;;;;;;5073501;28;20028;-74
2023/07/19 04:58:10;;;;;;;10.05;5.40;;;21.20;87.50;;;;;;5073571;28;20017;-74
2023/07/19 05:00:35;;;;;;;12.23;5.25;;;21.20;87.70;;;;;;5069611;28;20363;-74
2023/07/19 05:03:01;;;;;;;9.43;4.00;;;21.20;87.60;;;;;;5053770;28;20021;-74
2023/07/19 05:05:27;;;;;;;10.20;3.97;;;21.20;87.60;;;;;;5052041;28;20033;-75
2023/07/19 05:07:52;;;;;;;7.00;4.22;;;21.10;88.30;;;;;;5053467;28;20104;-74
2023/07/19 05:10:18;;;;;;;7.72;3.08;;;21.20;87.80;;;;;;5053833;28;20025;-75
2023/07/19 05:12:43;;;;;;;7.43;3.17;;;21.20;87.80;;;;;;5053766;28;20124;-74
2023/07/19 05:15:09;;;;;;;7.05;2.67;;;21.20;88.10;;;;;;5053809;28;20432;-74
2023/07/19 05:17:35;;;;;;;11.40;2.60;;;21.10;88.10;;;;;;5053558;28;20060;-74
2023/07/19 05:20:00;;;;;;;6.28;2.85;;;21.20;88.10;;;;;;5053714;28;20049;-75
2023/07/19 05:22:26;;;;;;;6.90;2.05;;;21.20;88.20;;;;;;5053208;28;20029;-74
2023/07/19 05:24:51;;;;;;;6.40;2.72;;;21.20;88.40;;;;;;5053294;28;20025;-74
2023/07/19 05:27:17;;;;;;;3.80;1.80;;;21.20;88.40;;;;;;5053443;28;20362;-74
2023/07/19 05:29:43;;;;;;;6.32;3.05;;;21.20;88.60;;;;;;5053182;28;20028;-74
2023/07/19 05:32:09;;;;;;;5.38;2.53;;;21.20;88.80;;;;;;5053541;28;20101;-74
2023/07/19 05:34:35;;;;;;;6.82;3.22;;;21.20;88.80;;;;;;5053410;28;20099;-74
2023/07/19 05:37:03;;;;;;;11.73;4.00;;;21.10;88.70;;;;;;5052809;28;20024;-75
2023/07/19 05:39:29;;;;;;;9.15;3.83;;;21.20;88.90;;;;;;5053133;28;20025;-74
2023/07/19 05:41:54;;;;;;;7.80;4.28;;;21.20;88.80;;;;;;5053143;28;20426;-74
2023/07/19 05:44:20;;;;;;;9.55;3.45;;;21.20;89.20;;;;;;5052942;28;20040;-74
2023/07/19 05:46:46;;;;;;;10.50;3.60;;;21.20;89.30;;;;;;5053097;28;20021;-74
2023/07/19 05:49:11;;;;;;;9.32;3.40;;;21.20;89.40;;;;;;5052966;28;20047;-75
2023/07/19 05:51:37;;;;;;;6.47;3.42;;;21.20;89.40;;;;;;5052710;28;20485;-74
2023/07/19 05:54:04;;;;;;;6.72;2.90;;;21.20;89.40;;;;;;5052960;28;20496;-74
2023/07/19 05:56:30;;;;;;;8.25;2.97;;;21.20;89.70;;;;;;5053220;28;20047;-74
2023/07/19 05:58:56;;;;;;;9.50;2.92;;;21.20;89.70;;;;;;5052774;28;20023;-74
2023/07/19 06:01:22;;;;;;;6.10;2.40;;;21.20;89.60;;;;;;5053016;28;20097;-75
2023/07/19 06:03:47;;;;;;;6.20;2.40;;;21.20;89.70;;;;;;5052746;28;20032;-74
2023/07/19 06:06:14;;;;;;;8.98;2.97;;;21.20;89.70;;;;;;5034869;28;20029;-74
2023/07/19 06:08:40;;;;;;;7.85;2.47;;;21.20;89.90;;;;;;5057698;28;20104;-74
2023/07/19 06:11:06;;;;;;;7.75;2.15;;;21.20;90.00;;;;;;5059464;28;20022;-74
2023/07/19 06:13:32;;;;;;;6.00;1.80;;;21.20;90.10;;;;;;5059544;28;20021;-74
2023/07/19 06:15:58;;;;;;;5.95;1.73;;;21.20;90.00;;;;;;5059688;28;20025;-74
2023/07/19 06:18:23;;;;;;;6.97;1.77;;;21.20;90.00;;;;;;5059448;28;20498;-74
2023/07/19 06:20:49;;;;;;;5.32;1.60;;;21.20;90.00;;;;;;5059211;28;20041;-74
2023/07/19 06:23:15;;;;;;;7.47;2.10;;;21.30;90.00;;;;;;5059329;28;20032;-74
2023/07/19 06:25:41;;;;;;;5.55;1.85;;;21.30;90.20;;;;;;5059500;28;20028;-74
2023/07/19 06:28:07;;;;;;;8.00;2.10;;;21.30;90.20;;;;;;5059273;28;20109;-74
2023/07/19 06:30:32;;;;;;;10.05;2.25;;;21.30;90.10;;;;;;5059371;28;20056;-74
2023/07/19 06:32:58;;;;;;;4.22;1.58;;;21.30;90.00;;;;;;5059475;28;20154;-74
2023/07/19 06:35:24;;;;;;;6.20;2.38;;;21.30;90.20;;;;;;5058918;28;20533;-75
2023/07/19 06:37:49;;;;;;;5.45;2.15;;;21.30;90.10;;;;;;5059272;28;20040;-74
2023/07/19 06:40:15;;;;;;;10.00;2.60;;;21.30;90.10;;;;;;5059283;28;20024;-75
2023/07/19 06:42:43;;;;;;;7.05;2.22;;;21.30;90.30;;;;;;5059311;28;20108;-74
2023/07/19 06:45:10;;;;;;;7.00;2.70;;;21.20;90.50;;;;;;5059169;28;20033;-74
2023/07/19 06:47:35;;;;;;;8.32;2.10;;;21.30;90.40;;;;;;5059417;28;20018;-74
2023/07/19 06:50:01;;;;;;;8.93;2.28;;;21.30;90.50;;;;;;5058962;28;20027;-74
2023/07/19 06:52:26;;;;;;;7.53;2.78;;;21.30;90.40;;;;;;5059030;28;20033;-75
2023/07/19 06:54:52;;;;;;;6.68;2.67;;;21.30;90.40;;;;;;5059173;28;20025;-74
2023/07/19 06:57:20;;;;;;;6.97;2.15;;;21.30;90.50;;;;;;5059226;28;20037;-74
2023/07/19 06:59:49;;;;;;;8.55;2.53;;;21.30;90.60;;;;;;5059095;28;20028;-74
2023/07/19 07:02:18;;;;;;;8.07;2.67;;;21.30;90.60;;;;;;5059337;28;20037;-74
2023/07/19 07:04:48;;;;;;;3.70;1.70;;;21.30;90.60;;;;;;5058759;28;20548;-74
2023/07/19 07:07:15;;;;;;;7.00;2.00;;;21.40;90.60;;;;;;5059105;28;20060;-74
2023/07/19 07:09:43;;;;;;;5.65;2.75;;;21.40;90.70;;;;;;5059072;28;20020;-74
2023/07/19 07:12:10;;;;;;;9.05;2.30;;;21.40;90.90;;;;;;5059014;28;20057;-75
2023/07/19 07:14:36;;;;;;;9.77;2.58;;;21.50;90.80;;;;;;5059071;28;20021;-74
2023/07/19 07:17:02;;;;;;;7.47;1.90;;;21.50;91.00;;;;;;5058993;28;20021;-75
2023/07/19 07:19:28;;;;;;;8.52;3.08;;;21.60;90.70;;;;;;5056160;28;20025;-75
2023/07/19 07:21:54;;;;;;;5.57;2.03;;;21.60;90.60;;;;;;5038072;28;20021;-74
2023/07/19 07:24:19;;;;;;;6.93;2.95;;;21.60;90.30;;;;;;5055907;28;20065;-74
2023/07/19 07:26:45;;;;;;;6.60;2.72;;;21.70;90.30;;;;;;5055838;28;20018;-74
2023/07/19 07:29:10;;;;;;;8.35;2.10;;;21.70;90.40;;;;;;5055594;28;20108;-75
2023/07/19 07:31:36;;;;;;;7.28;3.28;;;21.70;90.00;;;;;;5055745;28;20107;-74
2023/07/19 07:34:02;;;;;;;5.47;2.08;;;21.80;90.00;;;;;;5055382;28;20040;-74
2023/07/19 07:36:27;;;;;;;8.57;2.63;;;21.90;90.00;;;;;;5055300;28;20021;-74
2023/07/19 07:38:53;;;;;;;5.28;2.15;;;21.90;90.20;;;;;;5037675;28;20025;-74
2023/07/19 07:41:19;;;;;;;2.38;1.15;;;22.00;89.80;;;;;;5055446;28;20040;-74
2023/07/19 07:43:44;;;;;;;7.80;2.70;;;22.00;89.50;;;;;;5055386;28;20047;-74
2023/07/19 07:46:10;;;;;;;7.80;2.72;;;22.10;89.50;;;;;;5055409;28;20489;-74
2023/07/19 07:48:35;;;;;;;4.93;1.98;;;22.10;89.70;;;;;;5055077;28;20482;-74
2023/07/19 07:51:01;;;;;;;5.55;1.90;;;22.10;89.20;;;;;;5054922;28;20086;-74
2023/07/19 07:53:27;;;;;;;7.47;2.45;;;22.20;89.50;;;;;;5037286;28;20387;-75
2023/07/19 07:55:53;;;;;;;10.55;3.33;;;22.20;88.70;;;;;;5055102;28;20083;-74
2023/07/19 07:58:18;;;;;;;6.28;1.90;;;22.30;88.50;;;;;;5055141;28;20024;-74
2023/07/19 08:00:45;;;;;;;7.35;2.13;;;22.30;88.20;;;;;;5055082;28;20111;-75
2023/07/19 08:03:11;;;;;;;3.75;1.77;;;22.40;88.50;;;;;;5054936;28;20055;-74
2023/07/19 08:05:40;;;;;;;5.85;1.55;;;22.40;88.10;;;;;;5054949;28;20029;-74
2023/07/19 08:08:06;;;;;;;3.85;1.67;;;22.50;86.70;;;;;;5055173;28;20032;-75
2023/07/19 08:10:38;;;;;;;4.53;1.40;;;22.50;86.90;;;;;;5054939;28;20021;-74
2023/07/19 08:13:03;;;;;;;4.35;1.10;;;22.50;87.20;;;;;;5054901;28;20025;-73
2023/07/19 08:15:29;;;;;;;2.38;1.20;;;22.60;86.90;;;;;;5054507;28;20036;-74
2023/07/19 08:17:54;;;;;;;3.47;1.35;;;22.60;86.50;;;;;;5054687;28;20021;-75
2023/07/19 08:20:20;;;;;;;6.63;1.63;;;22.70;86.20;;;;;;5054645;28;20028;-74
2023/07/19 08:22:46;;;;;;;8.45;1.90;;;22.70;86.30;;;;;;5054696;28;20024;-74
2023/07/19 08:25:11;;;;;;;2.72;1.02;;;22.80;86.40;;;;;;5054676;28;20029;-74
2023/07/19 08:27:37;;;;;;;3.92;1.10;;;22.80;85.80;;;;;;5054485;28;20426;-73
2023/07/19 08:30:07;;;;;;;3.63;1.00;;;22.90;86.10;;;;;;5054211;28;20036;-74
2023/07/19 08:32:33;;;;;;;7.80;1.05;;;22.90;85.80;;;;;;5054337;28;20020;-74
2023/07/19 08:35:00;;;;;;;4.72;1.33;;;23.10;85.40;;;;;;5054609;28;20052;-75
2023/07/19 08:37:25;;;;;;;4.40;0.90;;;23.10;85.50;;;;;;5054523;28;20461;-75
2023/07/19 08:39:51;;;;;;;4.75;1.70;;;23.10;85.50;;;;;;5054477;28;20504;-76
2023/07/19 08:42:16;;;;;;;10.32;2.10;;;23.10;85.40;;;;;;5054172;28;20041;-74
2023/07/19 08:44:42;;;;;;;4.28;0.70;;;23.20;84.90;;;;;;5053944;28;20044;-76
2023/07/19 08:47:11;;;;;;;4.60;0.90;;;23.20;85.30;;;;;;5054148;28;20103;-75
2023/07/19 08:49:38;;;;;;;5.55;1.00;;;23.30;85.10;;;;;;5054204;28;20467;-73
2023/07/19 08:52:06;;;;;;;4.57;1.33;;;23.30;85.50;;;;;;5053683;28;20041;-74
2023/07/19 08:54:32;;;;;;;4.22;1.45;;;23.30;85.60;;;;;;5054141;28;20556;-74
2023/07/19 08:56:58;;;;;;;4.22;0.95;;;23.30;85.40;;;;;;5053934;28;20029;-74
2023/07/19 08:59:24;;;;;;;2.55;0.82;;;23.40;85.30;;;;;;5053877;28;20017;-74
2023/07/19 09:01:50;;;;;;;4.95;1.13;;;23.40;85.10;;;;;;5053777;28;20013;-74
2023/07/19 09:04:16;;;;;;;5.18;1.58;;;23.40;85.40;;;;;;5053790;28;20390;-75
2023/07/19 09:06:42;;;;;;;3.30;1.10;;;23.50;85.60;;;;;;5053936;28;20440;-74
2023/07/19 09:09:13;;;;;;;2.22;1.00;;;23.50;84.70;;;;;;5053762;28;20521;-76
2023/07/19 09:11:43;;;;;;;3.50;1.58;;;23.60;84.70;;;;;;5053681;28;20037;-75
2023/07/19 09:14:08;;;;;;;4.63;1.33;;;23.60;85.40;;;;;;5053389;28;20497;-75
2023/07/19 09:16:35;;;;;;;3.53;0.85;;;23.60;85.30;;;;;;5053793;28;20021;-75
2023/07/19 09:19:01;;;;;;;3.92;1.15;;;23.70;84.40;;;;;;5053774;28;20021;-75
2023/07/19 09:21:46;;;;;;;5.65;1.50;;;23.70;84.60;;;;;;5053497;28;20021;-75
2023/07/19 09:24:14;;;;;;;6.82;1.52;;;23.70;85.20;;;;;;5035636;28;20114;-75
2023/07/19 09:26:52;;;;;;;1.63;0.75;;;23.70;85.40;;;;;;5053567;28;20023;-74
2023/07/19 09:29:19;;;;;;;3.42;0.98;;;23.80;84.60;;;;;;5053388;28;20036;-75
2023/07/19 09:31:59;;;;;;;7.47;1.45;;;23.80;83.90;;;;;;5053563;28;20122;-75
2023/07/19 09:34:28;;;;;;;3.60;0.70;;;23.80;84.70;;;;;;5053411;28;20478;-75
2023/07/19 09:36:54;;;;;;;5.80;0.60;;;23.80;83.90;;;;;;5053271;28;20021;-75
2023/07/19 09:39:22;;;;;;;1.70;0.90;;;23.90;84.40;;;;;;5053419;28;20054;-75
2023/07/19 09:41:48;;;;;;;1.92;0.82;;;23.90;83.70;;;;;;5053162;28;20029;-75
2023/07/19 09:44:16;;;;;;;3.72;0.88;;;24.00;83.40;;;;;;5052446;28;20047;-75
2023/07/19 09:46:46;;;;;;;3.45;0.80;;;23.90;83.80;;;;;;5053513;28;20023;-75
2023/07/19 09:49:12;;;;;;;3.60;0.65;;;23.90;84.10;;;;;;5053026;28;20025;-75
2023/07/19 09:51:42;;;;;;;3.28;0.55;;;24.00;83.60;;;;;;5053056;28;20083;-75
2023/07/19 09:54:11;;;;;;;4.03;0.70;;;24.00;84.60;;;;;;5053206;28;20056;-75
2023/07/19 09:56:40;;;;;;;1.90;0.60;;;24.00;83.60;;;;;;5035747;28;20132;-75
2023/07/19 09:59:16;;;;;;;1.63;0.38;;;24.00;83.40;;;;;;5052741;28;20090;-75
2023/07/19 10:01:43;;;;;;;0.70;0.28;;;24.00;83.90;;;;;;5053166;28;20053;-75
2023/07/19 10:04:25;;;;;;;1.23;0.45;;;24.10;83.50;;;;;;5034933;28;20025;-74
2023/07/19 10:07:12;;;;;;;2.85;0.52;;;24.10;83.50;;;;;;5035006;28;20410;-75
2023/07/19 10:09:41;;;;;;;2.65;0.65;;;24.10;84.00;;;;;;5053018;28;20032;-75
2023/07/19 10:12:08;;;;;;;2.35;0.60;;;24.10;84.30;;;;;;5052688;28;20036;-75
2023/07/19 10:14:34;;;;;;;1.95;0.77;;;24.10;84.20;;;;;;5052705;28;20021;-75
2023/07/19 10:17:03;;;;;;;1.85;1.00;;;24.10;86.00;;;;;;5035060;28;20120;-75
2023/07/19 10:19:28;;;;;;;2.45;0.82;;;24.10;84.80;;;;;;5052837;28;20013;-75
2023/07/19 10:22:07;;;;;;;1.90;0.90;;;24.10;84.70;;;;;;5052875;28;20040;-75
2023/07/19 10:24:37;;;;;;;4.03;1.65;;;24.20;83.40;;;;;;5052818;28;20025;-75
2023/07/19 10:27:04;;;;;;;3.80;2.08;;;24.20;85.00;;;;;;5052431;28;20022;-75
2023/07/19 10:29:48;;;;;;;4.63;2.38;;;24.20;86.00;;;;;;5052632;28;20021;-75
2023/07/19 10:32:14;;;;;;;3.40;1.63;;;24.20;86.30;;;;;;5052833;28;20070;-75
2023/07/19 10:34:43;;;;;;;2.95;2.00;;;24.20;86.40;;;;;;5052933;28;20029;-75
2023/07/19 10:37:08;;;;;;;4.35;2.50;;;24.20;84.50;;;;;;5034638;28;20028;-75
2023/07/19 10:39:34;;;;;;;2.90;1.48;;;24.20;86.10;;;;;;5052694;28;20024;-75
2023/07/19 10:42:03;;;;;;;3.72;2.97;;;24.30;84.60;;;;;;5034675;28;20090;-75
2023/07/19 10:44:28;;;;;;;3.13;1.33;;;24.30;87.20;;;;;;5034463;28;20041;-75
2023/07/19 10:46:55;;;;;;;3.40;1.90;;;24.30;84.80;;;;;;5052593;28;20100;-75
2023/07/19 10:49:23;;;;;;;3.28;1.50;;;24.30;85.30;;;;;;5052465;28;20025;-75
2023/07/19 10:51:58;;;;;;;2.47;2.03;;;24.30;84.40;;;;;;5034521;28;20033;-75
2023/07/19 10:54:24;;;;;;;4.55;2.63;;;24.30;85.40;;;;;;5053007;28;20116;-75
2023/07/19 10:56:51;;;;;;;3.83;1.80;;;24.30;87.00;;;;;;5056076;28;20351;-75
2023/07/19 10:59:17;;;;;;;2.78;1.13;;;24.40;85.30;;;;;;5056297;28;20066;-75
2023/07/19 11:01:46;;;;;;;1.70;0.70;;;24.30;84.40;;;;;;5056264;28;20060;-75
2023/07/19 11:04:11;;;;;;;3.28;1.13;;;24.40;83.90;;;;;;5055964;28;20025;-75
2023/07/19 11:06:51;;;;;;;3.72;1.10;;;24.40;83.80;;;;;;5056179;28;20036;-75
2023/07/19 11:09:18;;;;;;;2.72;0.93;;;24.40;83.20;;;;;;5055775;28;20032;-74
2023/07/19 11:11:45;;;;;;;3.45;1.42;;;24.40;83.40;;;;;;5056047;28;20025;-74
2023/07/19 11:14:36;;;;;;;1.80;0.88;;;24.40;84.20;;;;;;5038029;28;20029;-74
2023/07/19 11:17:02;;;;;;;2.17;0.60;;;24.40;83.90;;;;;;5055755;28;20040;-74
2023/07/19 11:19:46;;;;;;;2.72;1.20;;;24.50;82.60;;;;;;5037959;28;20420;-74
2023/07/19 11:22:11;;;;;;;3.40;1.40;;;24.50;83.50;;;;;;5037708;28;20434;-74
2023/07/19 11:24:41;;;;;;;4.88;1.50;;;24.50;83.60;;;;;;5055337;28;20029;-74
2023/07/19 11:27:08;;;;;;;3.70;1.67;;;24.50;83.60;;;;;;5055799;28;20021;-74
2023/07/19 11:29:34;;;;;;;4.60;1.30;;;24.40;83.00;;;;;;5055637;28;20111;-74
2023/07/19 11:32:20;;;;;;;3.70;1.30;;;24.50;83.10;;;;;;5055639;28;20033;-74
2023/07/19 11:34:51;;;;;;;1.75;0.80;;;24.60;83.10;;;;;;5055605;28;20025;-74
2023/07/19 11:37:23;;;;;;;3.08;1.88;;;24.60;82.80;;;;;;5055568;28;20029;-74
2023/07/19 11:39:53;;;;;;;2.08;0.98;;;24.50;82.80;;;;;;5037304;28;20028;-74
2023/07/19 11:42:40;;;;;;;3.33;1.13;;;24.60;82.20;;;;;;5055503;28;20060;-74
2023/07/19 11:45:10;;;;;;;2.85;1.02;;;24.60;82.30;;;;;;5037384;28;20068;-75
2023/07/19 11:47:36;;;;;;;3.80;1.23;;;24.60;82.40;;;;;;5055457;28;20478;-74
2023/07/19 11:50:03;;;;;;;3.33;1.55;;;24.60;82.90;;;;;;5055332;28;20079;-75
2023/07/19 11:52:29;;;;;;;3.97;1.40;;;24.60;83.70;;;;;;5055094;28;20033;-75
2023/07/19 11:54:55;;;;;;;2.70;0.80;;;24.60;83.70;;;;;;5054895;28;20021;-75
2023/07/19 11:57:21;;;;;;;3.45;1.58;;;24.60;82.30;;;;;;5055411;28;20021;-75
2023/07/19 11:59:48;;;;;;;3.17;1.17;;;24.70;82.70;;;;;;5055503;28;20391;-75
2023/07/19 12:02:15;;;;;;;5.05;1.13;;;24.70;83.20;;;;;;5055001;28;20056;-75
2023/07/19 12:04:40;;;;;;;3.28;1.70;;;24.70;82.10;;;;;;5054998;28;20523;-75
2023/07/19 12:07:06;;;;;;;5.75;1.83;;;24.70;82.00;;;;;;5054467;28;20048;-75
2023/07/19 12:09:34;;;;;;;2.25;0.77;;;24.70;82.20;;;;;;5054755;28;20035;-75
2023/07/19 12:12:00;;;;;;;4.57;1.60;;;24.70;81.80;;;;;;5054735;28;20075;-74
2023/07/19 12:14:29;;;;;;;3.55;0.90;;;24.70;82.10;;;;;;5054893;28;20033;-75
2023/07/19 12:16:54;;;;;;;4.25;1.20;;;24.70;81.40;;;;;;5055300;28;20024;-76
2023/07/19 12:19:24;;;;;;;2.63;0.90;;;24.80;80.40;;;;;;5037064;28;20105;-75
2023/07/19 12:21:49;;;;;;;2.75;0.80;;;24.80;80.30;;;;;;5054277;28;20025;-75
2023/07/19 12:24:15;;;;;;;3.38;1.15;;;24.80;80.70;;;;;;5054678;28;20497;-75
2023/07/19 12:26:41;;;;;;;2.88;1.23;;;24.80;80.30;;;;;;5054660;28;20021;-75
2023/07/19 12:29:06;;;;;;;4.45;1.30;;;24.90;80.50;;;;;;5054695;28;20021;-75
2023/07/19 12:31:34;;;;;;;3.40;1.58;;;24.80;80.70;;;;;;5054353;28;20032;-75
2023/07/19 12:34:00;;;;;;;3.67;1.20;;;24.80;81.20;;;;;;5054712;28;20040;-75
2023/07/19 12:36:25;;;;;;;4.07;1.00;;;24.80;81.10;;;;;;5053997;28;20025;-75
2023/07/19 12:38:51;;;;;;;4.75;2.25;;;24.80;81.00;;;;;;5054725;28;20028;-75
2023/07/19 12:41:17;;;;;;;4.50;1.30;;;24.80;80.80;;;;;;5054313;28;20436;-75
2023/07/19 12:43:42;;;;;;;2.35;1.23;;;24.80;80.60;;;;;;5054250;28;20037;-75